Impacts TAF Board
For situational awareness. Not to be used for flight planning purposes.
IDs:

KPNS - Pensacola Intl, FL, US

Issued at 0520 UTC 03 Jul 2022
Updated at 0557 UTC 03 Jul 2022
Potential Impact None Slight Moderate High
Time0553Z 03/06Z 03/07Z 03/08Z 03/09Z 03/10Z 03/11Z 03/12Z 03/13Z 03/14Z 03/15Z 03/16Z 03/17Z 03/18Z>>
Type OBS PRVL PRVL PRVL PRVL PRVL PRVL PRVL PRVL PRVL PRVL PRVL
  [PRB30]  
PRVL
  [PRB30]  
PRVL
  [PRB30]  
VIS 10 >6 >6 >6 >6 >6 >6 >6 >6 >6 6 6
  [4]  
6
  [4]  
6
  [4]  
CIG -- 250 250 250 250 250 250 80 80 80 90 90
  [20]  
90
  [20]  
90
  [20]  
Cover CLR BKN BKN BKN BKN BKN BKN BKN BKN BKN BKN BKN
  [BKN]  
BKN
  [BKN]  
BKN
  [BKN]  
FltCat VFR VFR VFR VFR VFR VFR VFR VFR VFR VFR VFR VFR
  [MVFR]  
VFR
  [MVFR]  
VFR
  [MVFR]  
WX -- SHRA SHRA SHRA SHRA SHRA SHRA VCTS VCTS VCTS SHRA VCTS SHRA VCTS
  [TSRA]  
SHRA VCTS
  [TSRA]  
SHRA VCTS
  [TSRA]  
WDir 160 VRB VRB VRB VRB VRB VRB VRB VRB VRB 180 180
[180]
180
[180]
180
[180]
WSpd 3 3 3 3 3 3 3 4 4 4 7 7
  [7]  
7
  [7]  
7
  [7]  
WGst -- -- -- -- -- -- -- -- -- -- -- --
  [--]  
--
  [--]  
--
  [--]  
WSHgt -- -- -- -- -- -- -- -- -- -- -- --
[--]
--
[--]
--
[--]
WSDir -- -- -- -- -- -- -- -- -- -- -- --
[--]
--
[--]
--
[--]
WSSpd -- -- -- -- -- -- -- -- -- -- -- --
[--]
--
[--]
--
[--]
Raw TAF
KPNS 030520Z 0306/0406 VRB03KT P6SM SHRA FEW020 SCT100 BKN250
  FM031200 VRB04KT P6SM VCTS SCT020CB BKN080
  FM031500 18007KT 6SM SHRA VCTS SCT020CB BKN090
  PROB30 0316/0322 4SM TSRA BKN020CB
  FM040100 23005KT P6SM VCSH FEW020 BKN200


Raw METAR
KPNS 030553Z AUTO 16003KT 10SM CLR 26/24 A3002 RMK AO2 SLP167 T02610244 10278 20261 403000250 58012 $
KPNS 030453Z AUTO 00000KT 10SM CLR 26/25 A3003 RMK AO2 SLP170 T02610250 $
KPNS 030353Z AUTO 00000KT 10SM CLR 26/25 A3005 RMK AO2 SLP176 T02610250 $
KPNS 030253Z 00000KT 10SM CLR 27/26 A3006 RMK AO2 SLP179 T02670256 53010 $

METAR Board
Radar Display
Forecast Discussion
For situational awareness. Not to be used for flight planning purposes.